Time;durP1;ratioP1;P1;durP2;ratioP2;P2;SDS_P1;SDS_P2;PMS_P1;PMS_P2;Temp;Humidity;BMP_temperature;BMP_pressure;BME280_temperature;BME280_humidity;BME280_pressure;Samples;Min_cycle;Max_cycle;Signal;HPM_P1;HPM_P2
2021/05/13 00:00:09;;;;;;;15.20;9.60;;;11.50;99.80;;;;;;6159726;23;21042;-87
2021/05/13 00:02:36;;;;;;;9.80;8.67;;;11.50;99.80;;;;;;6157524;23;20471;-88
2021/05/13 00:05:05;;;;;;;14.00;9.20;;;11.50;99.80;;;;;;6172539;23;20515;-87
2021/05/13 00:07:32;;;;;;;10.80;9.70;;;11.50;99.80;;;;;;6178404;23;20523;-88
2021/05/13 00:10:00;;;;;;;10.53;8.43;;;11.50;99.80;;;;;;6177924;23;20450;-87
2021/05/13 00:12:37;;;;;;;10.20;8.83;;;11.50;99.80;;;;;;6169596;23;20454;-87
2021/05/13 00:15:10;;;;;;;11.50;8.23;;;11.40;99.80;;;;;;6141754;23;20439;-87
2021/05/13 00:17:38;;;;;;;14.13;9.80;;;11.40;99.80;;;;;;6173609;23;21030;-88
2021/05/13 00:20:09;;;;;;;10.67;9.43;;;11.40;99.80;;;;;;6176026;23;20518;-88
2021/05/13 00:22:36;;;;;;;14.83;9.10;;;11.40;99.80;;;;;;6169463;23;20516;-88
2021/05/13 00:25:06;;;;;;;13.30;9.43;;;11.30;99.80;;;;;;6170170;23;20847;-88
2021/05/13 00:27:33;;;;;;;10.90;9.20;;;11.30;99.80;;;;;;6163027;23;20437;-88
2021/05/13 00:30:01;;;;;;;11.30;9.57;;;11.20;99.80;;;;;;6169186;23;20442;-88
2021/05/13 00:32:29;;;;;;;12.33;10.30;;;11.10;99.80;;;;;;6158629;23;20541;-88
2021/05/13 00:34:56;;;;;;;13.57;10.33;;;11.00;99.80;;;;;;6160252;23;20768;-88
2021/05/13 00:37:24;;;;;;;14.53;10.20;;;11.00;99.80;;;;;;6172019;23;20435;-88
2021/05/13 00:39:51;;;;;;;11.10;9.27;;;10.90;99.80;;;;;;6169528;23;20468;-88
2021/05/13 00:42:19;;;;;;;14.10;10.00;;;10.90;99.80;;;;;;6164498;23;20467;-88
2021/05/13 00:44:46;;;;;;;11.67;9.70;;;10.90;99.80;;;;;;6169539;23;20437;-88
2021/05/13 00:47:14;;;;;;;13.87;10.47;;;10.80;99.80;;;;;;6164615;23;20445;-88
2021/05/13 00:49:44;;;;;;;12.67;10.23;;;10.70;99.80;;;;;;6163822;23;20439;-88
2021/05/13 00:52:12;;;;;;;13.53;10.03;;;10.60;99.80;;;;;;6176554;23;20442;-88
2021/05/13 00:54:40;;;;;;;18.20;12.03;;;10.60;99.80;;;;;;6165224;23;20439;-88
2021/05/13 00:57:11;;;;;;;14.97;11.40;;;10.60;99.80;;;;;;6161801;23;20459;-88
2021/05/13 00:59:41;;;;;;;15.43;11.07;;;10.60;99.80;;;;;;6156311;23;20464;-88
2021/05/13 01:02:08;;;;;;;14.33;11.27;;;10.60;99.80;;;;;;6168029;23;20466;-88
2021/05/13 01:04:36;;;;;;;12.67;10.10;;;10.60;99.80;;;;;;6171125;23;20489;-87
2021/05/13 01:07:05;;;;;;;13.03;10.47;;;10.60;99.80;;;;;;6171837;23;20440;-87
2021/05/13 01:09:33;;;;;;;13.70;10.00;;;10.60;99.80;;;;;;6161764;23;20816;-87
2021/05/13 01:12:03;;;;;;;11.53;9.67;;;10.50;99.80;;;;;;6167086;23;20437;-87
2021/05/13 01:14:39;;;;;;;16.43;10.80;;;10.50;99.80;;;;;;6160894;23;20457;-87
2021/05/13 01:17:18;;;;;;;13.60;10.73;;;10.50;99.80;;;;;;6165447;23;20521;-87
2021/05/13 01:19:50;;;;;;;14.33;10.20;;;10.40;99.80;;;;;;6176945;23;20446;-88
2021/05/13 01:22:20;;;;;;;12.90;10.93;;;10.40;99.80;;;;;;6172049;23;21125;-87
2021/05/13 01:24:48;;;;;;;15.77;11.20;;;10.40;99.80;;;;;;6169669;23;20440;-86
2021/05/13 01:27:17;;;;;;;18.83;11.00;;;10.50;99.80;;;;;;6171346;23;20517;-87
2021/05/13 01:29:47;;;;;;;30.57;11.67;;;10.50;99.80;;;;;;6163720;23;20467;-87
2021/05/13 01:32:16;;;;;;;16.03;11.20;;;10.40;99.80;;;;;;6171908;23;20829;-87
2021/05/13 01:34:44;;;;;;;16.07;11.60;;;10.30;99.80;;;;;;6173083;23;20505;-87
2021/05/13 01:37:11;;;;;;;13.17;11.67;;;10.20;99.80;;;;;;6163236;23;20442;-87
2021/05/13 01:39:39;;;;;;;14.60;10.60;;;10.20;99.80;;;;;;6160933;23;20522;-86
2021/05/13 01:42:07;;;;;;;16.50;11.90;;;10.20;99.80;;;;;;6165175;23;20436;-87
2021/05/13 01:44:35;;;;;;;16.40;12.07;;;10.10;99.80;;;;;;6170324;23;20439;-86
2021/05/13 01:47:02;;;;;;;18.00;12.97;;;10.10;99.80;;;;;;6171262;23;20465;-86
2021/05/13 01:49:33;;;;;;;16.57;12.50;;;10.10;99.80;;;;;;6171355;23;20508;-86
2021/05/13 01:52:01;;;;;;;17.80;14.03;;;10.10;99.80;;;;;;6177632;23;20494;-86
2021/05/13 01:54:28;;;;;;;21.30;15.10;;;10.10;99.80;;;;;;6175933;23;20452;-86
2021/05/13 01:57:02;;;;;;;20.73;14.67;;;10.10;99.80;;;;;;6159156;23;20453;-87
2021/05/13 01:59:31;;;;;;;18.57;13.53;;;10.10;99.80;;;;;;6155892;23;20854;-87
2021/05/13 02:01:59;;;;;;;19.70;13.70;;;10.10;99.80;;;;;;6165328;23;20453;-88
2021/05/13 02:04:28;;;;;;;20.40;14.17;;;10.10;99.80;;;;;;6184175;23;20426;-87
2021/05/13 02:06:55;;;;;;;20.43;15.13;;;10.10;99.80;;;;;;6183985;23;20495;-87
2021/05/13 02:09:24;;;;;;;25.00;14.20;;;10.10;99.80;;;;;;6183935;23;20416;-87
2021/05/13 02:11:52;;;;;;;21.27;14.60;;;10.00;99.80;;;;;;6184431;23;20939;-87
2021/05/13 02:14:20;;;;;;;23.60;14.60;;;10.00;99.80;;;;;;6183770;23;20504;-87
2021/05/13 02:16:47;;;;;;;22.20;14.50;;;10.00;99.80;;;;;;6183309;23;20438;-87
2021/05/13 02:19:15;;;;;;;22.20;14.83;;;10.00;99.80;;;;;;6139531;23;20824;-88
2021/05/13 02:21:43;;;;;;;19.40;14.97;;;10.00;99.80;;;;;;6174347;23;20444;-87
2021/05/13 02:24:11;;;;;;;22.57;16.10;;;10.00;99.80;;;;;;6164494;23;20936;-86
2021/05/13 02:26:38;;;;;;;27.03;16.87;;;10.00;99.80;;;;;;6154875;23;20444;-87
2021/05/13 02:29:06;;;;;;;20.97;15.90;;;10.00;99.80;;;;;;6164895;23;21093;-88
2021/05/13 02:31:34;;;;;;;22.70;16.40;;;10.00;99.80;;;;;;6168989;23;20543;-88
2021/05/13 02:34:07;;;;;;;22.37;15.80;;;9.90;99.80;;;;;;6178609;23;20450;-88
2021/05/13 02:36:35;;;;;;;23.23;17.33;;;9.90;99.80;;;;;;6175265;23;20451;-88
2021/05/13 02:39:06;;;;;;;21.53;16.40;;;9.90;99.80;;;;;;6176281;23;20446;-87
2021/05/13 02:41:33;;;;;;;24.03;15.83;;;9.90;99.80;;;;;;6167893;23;20933;-87
2021/05/13 02:44:07;;;;;;;26.63;16.67;;;9.80;99.80;;;;;;6163337;23;20440;-88
2021/05/13 02:46:43;;;;;;;25.60;17.70;;;9.80;99.80;;;;;;6167071;23;20435;-88
2021/05/13 02:49:10;;;;;;;23.67;17.00;;;9.90;99.80;;;;;;6170723;23;20462;-87
2021/05/13 02:51:38;;;;;;;24.10;18.27;;;9.80;99.80;;;;;;6172276;23;20438;-88
2021/05/13 02:54:05;;;;;;;22.70;16.13;;;9.80;99.80;;;;;;6158984;23;20454;-85
2021/05/13 02:56:33;;;;;;;25.00;17.73;;;9.90;99.80;;;;;;6157106;23;20435;-87
2021/05/13 02:59:00;;;;;;;24.63;16.87;;;9.80;99.80;;;;;;6158776;23;20530;-87
2021/05/13 03:01:29;;;;;;;25.60;16.37;;;9.80;99.80;;;;;;6135887;23;20442;-88
2021/05/13 03:03:58;;;;;;;22.60;15.87;;;9.80;99.80;;;;;;6136549;23;20441;-87
2021/05/13 03:06:29;;;;;;;25.70;17.70;;;9.80;99.80;;;;;;6165788;23;20786;-87
2021/05/13 03:08:57;;;;;;;25.10;17.00;;;9.80;99.80;;;;;;6162605;23;20435;-88
2021/05/13 03:11:27;;;;;;;22.73;15.77;;;9.80;99.80;;;;;;6166564;23;20439;-88
2021/05/13 03:13:56;;;;;;;19.10;15.07;;;9.80;99.80;;;;;;6163428;23;20446;-88
2021/05/13 03:16:24;;;;;;;21.90;15.73;;;9.70;99.80;;;;;;6171592;23;20451;-88
2021/05/13 03:18:53;;;;;;;21.03;15.57;;;9.70;99.80;;;;;;6176707;23;20526;-88
2021/05/13 03:21:26;;;;;;;19.67;14.80;;;9.60;99.80;;;;;;6176493;23;20546;-87
2021/05/13 03:23:59;;;;;;;20.20;14.90;;;9.60;99.80;;;;;;6155741;23;20444;-87
2021/05/13 03:26:36;;;;;;;23.57;17.03;;;9.50;99.80;;;;;;6158339;23;20948;-88
2021/05/13 03:29:04;;;;;;;25.27;15.50;;;9.50;99.80;;;;;;6162821;23;20430;-87
2021/05/13 03:31:32;;;;;;;24.63;16.93;;;9.50;99.80;;;;;;6170261;23;20434;-87
2021/05/13 03:34:00;;;;;;;21.60;15.50;;;9.50;99.80;;;;;;6171769;23;20439;-88
2021/05/13 03:36:30;;;;;;;21.57;14.77;;;9.50;99.80;;;;;;6166438;23;20453;-87
2021/05/13 03:38:58;;;;;;;19.50;14.23;;;9.50;99.80;;;;;;6164732;23;20461;-88
2021/05/13 03:41:26;;;;;;;23.03;15.40;;;9.40;99.80;;;;;;6163263;23;20434;-87
2021/05/13 03:43:53;;;;;;;24.17;15.20;;;9.40;99.80;;;;;;6157183;23;20444;-86
2021/05/13 03:46:21;;;;;;;25.10;15.57;;;9.30;99.80;;;;;;6161468;23;20455;-88
2021/05/13 03:48:48;;;;;;;23.83;15.70;;;9.30;99.80;;;;;;6175623;23;20433;-88
2021/05/13 03:51:16;;;;;;;21.17;15.33;;;9.30;99.80;;;;;;6171010;23;20445;-87
2021/05/13 03:53:45;;;;;;;21.87;15.60;;;9.30;99.80;;;;;;6176383;23;20437;-85
2021/05/13 03:56:13;;;;;;;22.17;15.43;;;9.30;99.80;;;;;;6170992;23;20442;-87
2021/05/13 03:58:41;;;;;;;21.37;14.90;;;9.20;99.80;;;;;;6156859;23;20448;-87
2021/05/13 04:01:11;;;;;;;29.47;17.27;;;9.20;99.80;;;;;;6140181;23;20468;-87
2021/05/13 04:03:40;;;;;;;22.50;16.30;;;9.20;99.80;;;;;;6160716;23;20447;-87
2021/05/13 04:06:07;;;;;;;26.20;15.97;;;9.20;99.80;;;;;;6161669;23;20509;-89
2021/05/13 04:08:35;;;;;;;23.40;15.90;;;9.20;99.80;;;;;;6146965;23;20436;-88
2021/05/13 04:11:03;;;;;;;24.70;16.77;;;9.20;99.80;;;;;;6119020;23;20974;-88
2021/05/13 04:13:30;;;;;;;25.87;17.10;;;9.20;99.80;;;;;;6148630;23;20518;-88
2021/05/13 04:16:00;;;;;;;31.63;16.20;;;9.20;99.80;;;;;;6156952;23;20493;-88
2021/05/13 04:18:27;;;;;;;22.20;16.97;;;9.20;99.80;;;;;;6173294;23;20446;-88
2021/05/13 04:20:55;;;;;;;26.43;18.37;;;9.30;99.80;;;;;;6177176;23;20972;-88
2021/05/13 04:23:22;;;;;;;27.33;17.70;;;9.30;99.80;;;;;;6176105;23;20530;-88
2021/05/13 04:25:51;;;;;;;20.27;15.10;;;9.30;99.80;;;;;;6166581;23;20436;-88
2021/05/13 04:28:19;;;;;;;25.70;16.93;;;9.30;99.80;;;;;;6151387;23;20440;-88
2021/05/13 04:30:46;;;;;;;24.53;16.40;;;9.30;99.80;;;;;;6098579;23;20522;-88
2021/05/13 04:33:15;;;;;;;24.60;15.93;;;9.30;99.80;;;;;;6142974;23;20438;-88
2021/05/13 04:35:42;;;;;;;25.60;17.33;;;9.40;99.80;;;;;;6175444;23;20752;-89
2021/05/13 04:38:14;;;;;;;24.27;15.40;;;9.40;99.80;;;;;;6155812;23;20436;-88
2021/05/13 04:40:42;;;;;;;20.73;15.33;;;9.40;99.80;;;;;;6137481;23;20519;-88
2021/05/13 04:43:10;;;;;;;23.87;17.37;;;9.50;99.80;;;;;;6149553;23;20513;-89
2021/05/13 04:45:38;;;;;;;21.97;16.00;;;9.50;99.80;;;;;;6158641;23;20438;-89
2021/05/13 04:48:10;;;;;;;21.23;16.70;;;9.50;99.80;;;;;;6126504;23;20455;-90
2021/05/13 04:50:37;;;;;;;21.23;16.80;;;9.60;99.80;;;;;;6165424;23;20538;-89
2021/05/13 04:53:08;;;;;;;25.80;20.07;;;9.60;99.80;;;;;;6151948;23;20755;-88
2021/05/13 04:55:37;;;;;;;29.80;20.07;;;9.60;99.80;;;;;;6165948;23;20442;-88
2021/05/13 04:58:05;;;;;;;29.57;24.30;;;9.70;99.80;;;;;;6139360;23;20446;-89
2021/05/13 05:00:33;;;;;;;33.30;22.23;;;9.70;99.80;;;;;;6130911;23;20444;-88
2021/05/13 05:03:02;;;;;;;30.40;21.93;;;9.80;99.80;;;;;;6175567;23;20778;-88
2021/05/13 05:05:29;;;;;;;32.00;21.13;;;9.90;99.80;;;;;;6177975;23;20437;-89
2021/05/13 05:07:57;;;;;;;31.23;19.23;;;9.90;99.80;;;;;;6158022;23;20442;-88
2021/05/13 05:10:24;;;;;;;32.57;17.50;;;10.10;99.80;;;;;;6167906;23;20457;-88
2021/05/13 05:12:52;;;;;;;32.43;17.60;;;10.20;99.80;;;;;;6169961;23;20993;-88
2021/05/13 05:15:19;;;;;;;46.90;19.40;;;10.30;99.80;;;;;;6145240;23;20462;-88
2021/05/13 05:17:47;;;;;;;44.83;17.60;;;10.40;99.80;;;;;;6167260;23;20450;-88
2021/05/13 05:20:15;;;;;;;41.93;17.80;;;10.60;99.80;;;;;;6169763;23;20438;-88
2021/05/13 05:22:43;;;;;;;63.97;17.27;;;10.60;99.80;;;;;;6159790;23;20516;-89
2021/05/13 05:25:11;;;;;;;22.43;15.53;;;10.70;99.80;;;;;;6168421;23;20444;-89
2021/05/13 05:27:38;;;;;;;21.13;14.50;;;10.70;99.80;;;;;;6168280;23;20831;-89
2021/05/13 05:30:07;;;;;;;18.07;12.90;;;10.70;99.80;;;;;;6161923;23;20491;-88
2021/05/13 05:32:35;;;;;;;19.67;12.20;;;10.60;99.80;;;;;;6170226;23;20548;-88
2021/05/13 05:35:08;;;;;;;22.83;13.17;;;10.50;99.80;;;;;;6173139;23;20448;-88
2021/05/13 05:37:38;;;;;;;29.60;14.63;;;10.50;99.80;;;;;;6177440;23;20441;-89
2021/05/13 05:40:07;;;;;;;48.67;15.53;;;10.50;99.80;;;;;;6171964;23;20770;-89
2021/05/13 05:42:35;;;;;;;61.87;15.10;;;10.70;99.80;;;;;;6151939;23;20509;-89
2021/05/13 05:45:03;;;;;;;36.43;15.00;;;10.80;99.80;;;;;;6161306;23;20439;-89
2021/05/13 05:47:31;;;;;;;39.40;14.63;;;10.80;99.80;;;;;;6168924;23;20460;-88
2021/05/13 05:49:59;;;;;;;34.93;12.37;;;10.90;99.80;;;;;;6163211;23;20447;-89
2021/05/13 05:52:26;;;;;;;21.50;14.40;;;11.10;99.80;;;;;;6162938;23;21013;-89
2021/05/13 05:54:56;;;;;;;22.63;14.90;;;11.10;99.80;;;;;;6167651;23;20444;-89
2021/05/13 05:57:23;;;;;;;19.20;13.00;;;11.30;99.80;;;;;;6163780;23;20436;-88
2021/05/13 05:59:51;;;;;;;17.50;12.23;;;11.30;99.80;;;;;;6152554;23;20445;-88
2021/05/13 06:02:18;;;;;;;21.00;13.13;;;11.50;99.80;;;;;;6160409;23;20436;-87
2021/05/13 06:04:46;;;;;;;49.00;14.10;;;11.60;99.80;;;;;;6176388;23;20466;-86
2021/05/13 06:07:13;;;;;;;25.60;13.60;;;11.60;99.80;;;;;;6174463;23;20467;-88
2021/05/13 06:09:41;;;;;;;20.37;12.87;;;11.70;99.80;;;;;;6175945;23;20443;-88
2021/05/13 06:12:09;;;;;;;16.57;11.40;;;11.70;99.80;;;;;;6157115;23;20430;-88
2021/05/13 06:14:37;;;;;;;37.63;12.33;;;11.80;99.80;;;;;;6166980;23;20444;-88
2021/05/13 06:17:05;;;;;;;31.07;12.23;;;11.90;99.80;;;;;;6148200;23;20508;-89
2021/05/13 06:19:32;;;;;;;52.23;12.57;;;12.00;99.80;;;;;;6174283;23;20527;-87
2021/05/13 06:22:00;;;;;;;20.00;12.97;;;12.00;99.80;;;;;;6160039;23;20440;-88
2021/05/13 06:24:27;;;;;;;19.97;13.00;;;12.00;99.80;;;;;;6155645;23;20942;-88
2021/05/13 06:26:56;;;;;;;27.60;13.10;;;12.00;99.80;;;;;;6166839;23;20498;-88
2021/05/13 06:29:27;;;;;;;24.10;13.77;;;12.20;99.80;;;;;;6155827;23;20468;-87
2021/05/13 06:31:54;;;;;;;22.97;15.00;;;12.30;99.80;;;;;;6156804;23;20439;-88
2021/05/13 06:34:22;;;;;;;17.80;13.87;;;12.40;99.80;;;;;;6175856;23;20459;-87
2021/05/13 06:36:50;;;;;;;28.27;15.93;;;12.40;99.80;;;;;;6176530;23;20964;-88
2021/05/13 06:39:18;;;;;;;27.00;16.10;;;12.70;99.80;;;;;;6172345;23;20449;-88
2021/05/13 06:41:45;;;;;;;23.33;15.63;;;12.80;99.80;;;;;;6177440;23;20531;-88
2021/05/13 06:44:13;;;;;;;20.83;14.30;;;12.80;99.80;;;;;;6172317;23;20803;-88
2021/05/13 06:46:41;;;;;;;25.30;16.17;;;12.80;99.80;;;;;;6163450;23;20448;-88
2021/05/13 06:49:09;;;;;;;22.80;15.53;;;12.80;99.80;;;;;;6173361;23;20468;-88
2021/05/13 06:51:39;;;;;;;23.40;15.80;;;12.80;99.80;;;;;;6175313;23;20520;-86
2021/05/13 06:54:07;;;;;;;22.67;16.47;;;12.80;99.80;;;;;;6135989;23;20459;-87
2021/05/13 06:56:34;;;;;;;26.53;17.53;;;12.70;99.80;;;;;;6162527;23;20440;-87
2021/05/13 06:59:02;;;;;;;24.30;17.27;;;12.70;99.80;;;;;;6162850;23;20845;-86
2021/05/13 07:01:30;;;;;;;27.80;18.27;;;12.80;99.80;;;;;;6120372;23;20486;-87
2021/05/13 07:03:59;;;;;;;30.53;18.63;;;12.90;99.80;;;;;;6149521;23;20527;-86
2021/05/13 07:06:26;;;;;;;25.30;18.57;;;12.90;99.80;;;;;;6150203;23;20531;-86
2021/05/13 07:08:54;;;;;;;25.63;17.03;;;12.90;99.80;;;;;;6160121;23;20470;-87
2021/05/13 07:11:21;;;;;;;24.23;16.67;;;13.00;99.80;;;;;;6150945;23;20446;-86
2021/05/13 07:13:49;;;;;;;21.87;16.60;;;13.20;99.80;;;;;;6153856;23;20445;-86
2021/05/13 07:16:16;;;;;;;20.70;15.30;;;13.20;99.80;;;;;;6163156;23;20534;-87
2021/05/13 07:18:44;;;;;;;22.33;15.80;;;13.30;99.80;;;;;;6176364;23;20519;-91
2021/05/13 07:21:13;;;;;;;22.57;16.23;;;13.40;99.80;;;;;;6173689;23;20499;-90
2021/05/13 07:23:43;;;;;;;22.77;15.20;;;13.50;99.80;;;;;;6178019;23;20528;-89
2021/05/13 07:26:11;;;;;;;18.87;15.10;;;13.50;99.80;;;;;;6156513;23;20492;-90
2021/05/13 07:28:40;;;;;;;20.73;15.60;;;13.60;99.80;;;;;;6160025;23;20511;-90
2021/05/13 07:31:08;;;;;;;19.67;15.80;;;13.70;99.80;;;;;;6171627;23;21000;-90
2021/05/13 07:33:36;;;;;;;25.20;16.43;;;13.90;99.80;;;;;;6178524;23;20447;-91
2021/05/13 07:36:04;;;;;;;20.63;15.80;;;13.90;99.80;;;;;;6152245;23;20949;-90
2021/05/13 07:38:33;;;;;;;23.40;16.67;;;14.10;99.80;;;;;;6154756;23;20516;-91
2021/05/13 07:41:04;;;;;;;20.43;15.83;;;14.30;99.80;;;;;;6160323;23;20441;-90
2021/05/13 07:43:38;;;;;;;20.13;15.37;;;14.40;99.80;;;;;;6152273;23;20513;-89
2021/05/13 07:46:08;;;;;;;20.50;14.93;;;14.40;99.80;;;;;;6140113;23;20459;-91
2021/05/13 07:48:44;;;;;;;19.93;15.67;;;14.60;99.80;;;;;;6179192;23;20433;-91
2021/05/13 07:51:12;;;;;;;22.63;16.63;;;14.70;99.80;;;;;;6178001;23;20494;-88
2021/05/13 07:53:49;;;;;;;20.50;14.90;;;14.70;99.80;;;;;;6181023;23;20448;-89
2021/05/13 07:56:17;;;;;;;20.50;14.60;;;14.80;99.80;;;;;;6164394;23;20963;-90
2021/05/13 07:58:45;;;;;;;25.10;16.43;;;14.80;99.80;;;;;;6139541;23;20433;-90
2021/05/13 08:01:12;;;;;;;20.93;15.43;;;14.90;99.80;;;;;;6107110;23;20832;-90
2021/05/13 08:03:40;;;;;;;22.90;16.00;;;15.00;99.80;;;;;;6166178;23;20456;-90
2021/05/13 08:06:08;;;;;;;21.80;15.03;;;15.10;99.80;;;;;;6170667;23;20441;-90
2021/05/13 08:08:35;;;;;;;23.03;17.37;;;15.20;99.80;;;;;;6129859;23;20478;-90
2021/05/13 08:11:04;;;;;;;21.80;16.20;;;15.20;99.80;;;;;;6157804;23;20458;-89
2021/05/13 08:13:32;;;;;;;24.03;16.30;;;15.40;99.80;;;;;;6153161;23;20516;-90
2021/05/13 08:15:59;;;;;;;23.60;15.40;;;15.40;99.80;;;;;;6117338;23;20598;-89
2021/05/13 08:18:27;;;;;;;22.23;15.07;;;15.50;99.80;;;;;;6164546;23;20437;-89
2021/05/13 08:20:55;;;;;;;21.60;15.70;;;15.60;99.80;;;;;;6181144;23;20436;-90
2021/05/13 08:23:23;;;;;;;22.63;16.30;;;15.80;99.80;;;;;;6177300;23;20444;-90
2021/05/13 08:25:51;;;;;;;19.37;14.87;;;15.70;99.80;;;;;;6177597;23;20441;-89
2021/05/13 08:28:19;;;;;;;22.23;15.80;;;16.00;99.80;;;;;;6164455;23;20846;-90
2021/05/13 08:30:46;;;;;;;17.93;14.43;;;16.10;99.80;;;;;;6154413;23;21266;-90
2021/05/13 08:33:14;;;;;;;22.90;14.83;;;16.20;99.80;;;;;;6179759;23;20441;-90
2021/05/13 08:35:42;;;;;;;15.60;13.43;;;16.40;99.80;;;;;;6177569;23;20457;-89
2021/05/13 08:38:09;;;;;;;20.67;14.80;;;16.60;99.80;;;;;;6156250;23;20540;-90
2021/05/13 08:40:37;;;;;;;18.40;14.77;;;16.50;99.80;;;;;;6139826;23;20446;-90
2021/05/13 08:43:23;;;;;;;21.47;16.10;;;16.60;99.80;;;;;;6134967;23;20475;-90
2021/05/13 08:45:52;;;;;;;20.53;14.17;;;16.70;99.80;;;;;;6165884;23;20506;-89
2021/05/13 08:48:20;;;;;;;21.70;13.83;;;16.80;99.80;;;;;;6154736;23;20935;-89
2021/05/13 08:50:48;;;;;;;24.23;13.70;;;16.90;99.80;;;;;;6150548;23;21239;-90
2021/05/13 08:53:16;;;;;;;17.37;13.27;;;17.10;99.80;;;;;;6127081;23;20448;-90
2021/05/13 08:55:43;;;;;;;17.50;13.67;;;17.20;99.80;;;;;;6110699;23;20467;-90
2021/05/13 08:58:11;;;;;;;14.80;11.90;;;17.40;99.80;;;;;;6149267;23;20478;-88
2021/05/13 09:00:50;;;;;;;20.53;13.27;;;17.50;99.80;;;;;;6087793;23;20439;-89
2021/05/13 09:03:31;;;;;;;17.93;11.40;;;17.60;99.80;;;;;;6136376;23;20466;-90
2021/05/13 09:05:58;;;;;;;18.73;11.77;;;17.70;99.80;;;;;;6178606;23;20920;-87
2021/05/13 09:08:47;;;;;;;15.13;10.40;;;;;;;;;;6160712;23;20525;-90
2021/05/13 09:11:17;;;;;;;20.37;13.33;;;;;;;;;;6122479;23;20909;-89
2021/05/13 09:13:48;;;;;;;13.57;8.90;;;;;;;;;;6120209;23;20477;-87
2021/05/13 09:16:29;;;;;;;9.43;8.53;;;;;;;;;;6128403;23;20856;-89
2021/05/13 09:18:57;;;;;;;11.03;7.97;;;;;;;;;;6161964;23;20459;-89
2021/05/13 09:21:26;;;;;;;12.23;8.17;;;;;;;;;;6141944;23;21185;-91
2021/05/13 09:24:03;;;;;;;11.63;7.30;;;;;;;;;;6134235;23;20462;-89
2021/05/13 09:26:31;;;;;;;6.43;5.80;;;;;;;;;;6154056;23;20523;-90
2021/05/13 09:29:10;;;;;;;8.93;8.00;;;;;;;;;;6150943;23;20540;-89
2021/05/13 09:31:40;;;;;;;12.77;9.00;;;;;;;;;;6156688;23;20446;-89
2021/05/13 09:34:09;;;;;;;14.00;10.23;;;;;;;;;;6175612;23;20975;-89
2021/05/13 09:36:37;;;;;;;15.47;10.70;;;;;;;;;;6174281;23;20493;-90
2021/05/13 09:39:22;;;;;;;13.53;9.40;;;;;;;;;;6177122;23;20433;-89
2021/05/13 09:41:58;;;;;;;14.83;9.13;;;;;;;;;;6149743;23;20428;-89
2021/05/13 09:44:33;;;;;;;15.33;10.53;;;;;;;;;;6149001;23;20475;-89
2021/05/13 09:47:26;;;;;;;12.50;10.00;;;;;;;;;;6126520;23;20781;-89
2021/05/13 09:50:03;;;;;;;12.20;9.27;;;;;;;;;;6174689;23;20464;-89
2021/05/13 09:52:47;;;;;;;11.77;8.50;;;;;;;;;;6140170;23;20444;-89
2021/05/13 09:55:23;;;;;;;10.47;8.43;;;;;;;;;;6110465;23;21137;-89
2021/05/13 09:57:56;;;;;;;12.50;8.43;;;;;;;;;;6129075;23;20519;-89
2021/05/13 10:00:34;;;;;;;10.43;8.17;;;;;;;;;;6120430;23;20465;-90
2021/05/13 10:03:04;;;;;;;8.03;5.90;;;;;;;;;;6145673;23;20933;-89
2021/05/13 10:05:33;;;;;;;7.70;5.70;;;;;;;;;;6177740;23;20443;-94
2021/05/13 10:08:01;;;;;;;12.50;9.13;;;;;;;;;;6162382;23;20437;-91
2021/05/13 10:10:37;;;;;;;8.60;7.47;;;;;;;;;;6178518;23;20432;-89
2021/05/13 10:13:07;;;;;;;8.53;6.57;;;;;;;;;;6157061;23;20467;-89
2021/05/13 10:15:35;;;;;;;9.97;6.80;;;;;;;;;;6137622;23;20428;-89
2021/05/13 10:18:07;;;;;;;6.77;6.10;;;;;;;;;;6177156;23;20440;-89
2021/05/13 10:20:36;;;;;;;6.17;5.47;;;;;;;;;;6177777;23;20720;-88
2021/05/13 10:23:06;;;;;;;7.20;6.50;;;;;;;;;;6145253;23;21315;-90
2021/05/13 10:25:36;;;;;;;5.70;5.07;;;;;;;;;;6126047;23;20442;-86
2021/05/13 10:28:05;;;;;;;6.90;5.70;;;;;;;;;;6104459;23;20438;-86
2021/05/13 10:30:33;;;;;;;6.73;6.07;;;;;;;;;;6144518;23;20447;-86
2021/05/13 10:33:07;;;;;;;8.63;6.40;;;;;;;;;;6138704;23;20449;-86
2021/05/13 10:35:36;;;;;;;6.63;5.77;;;;;;;;;;6126923;23;20456;-86
2021/05/13 10:38:08;;;;;;;13.23;6.97;;;;;;;;;;6123711;23;20437;-86
2021/05/13 10:40:49;;;;;;;6.03;4.97;;;;;;;;;;6140268;23;20457;-86
2021/05/13 10:43:26;;;;;;;9.90;4.97;;;;;;;;;;6108310;23;20540;-86
2021/05/13 10:45:53;;;;;;;6.30;3.90;;;;;;;;;;6140443;23;20445;-85
2021/05/13 10:48:23;;;;;;;5.20;3.73;;;;;;;;;;6171834;23;20437;-86
2021/05/13 10:50:53;;;;;;;4.47;3.80;;;;;;;;;;6177724;23;20949;-90
2021/05/13 10:53:40;;;;;;;4.80;3.80;;;;;;;;;;6160210;23;20512;-90
2021/05/13 10:56:11;;;;;;;7.70;4.23;;;;;;;;;;6150773;23;20533;-90
2021/05/13 10:58:59;;;;;;;5.37;4.23;;;;;;;;;;6133978;23;20883;-91
2021/05/13 11:01:37;;;;;;;7.40;3.50;;;;;;;;;;6087557;23;20525;-88
2021/05/13 11:04:23;;;;;;;3.87;3.23;;;;;;;;;;6160609;23;20901;-88
2021/05/13 11:06:53;;;;;;;2.63;2.37;;;;;;;;;;6137799;23;20446;-90
2021/05/13 11:09:36;;;;;;;4.53;2.97;;;;;;;;;;6124381;23;21474;-88
2021/05/13 11:12:11;;;;;;;4.07;3.17;;;;;;;;;;6125010;23;20504;-88
2021/05/13 11:15:02;;;;;;;4.20;3.27;;;;;;;;;;6149843;23;20437;-87
2021/05/13 11:17:51;;;;;;;5.10;3.20;;;;;;;;;;6136449;23;20434;-90
2021/05/13 11:20:19;;;;;;;3.70;2.53;;;;;;;;;;6176084;23;20440;-89
2021/05/13 11:22:56;;;;;;;2.60;2.03;;;;;;;;;;6178196;23;20527;-89
2021/05/13 11:25:25;;;;;;;2.20;1.50;;;;;;;;;;6165790;23;20491;-89
2021/05/13 11:27:53;;;;;;;2.37;1.83;;;;;;;;;;6138022;23;20462;-89
2021/05/13 11:30:24;;;;;;;5.43;1.80;;;;;;;;;;6127779;23;21062;-90
2021/05/13 11:32:52;;;;;;;5.13;1.63;;;;;;;;;;6139768;23;20528;-91
2021/05/13 11:35:21;;;;;;;5.00;2.70;;;21.20;76.40;;;;;;6160285;23;20444;-90
2021/05/13 11:37:51;;;;;;;3.17;1.80;;;20.90;76.80;;;;;;6150804;23;20487;-88
2021/05/13 11:40:23;;;;;;;4.43;1.77;;;;;;;;;;6149033;23;20504;-90
2021/05/13 11:42:51;;;;;;;3.53;1.77;;;;;;;;;;6135620;23;20448;-87
2021/05/13 11:45:20;;;;;;;1.87;1.60;;;;;;;;;;6149071;23;20441;-88
2021/05/13 11:47:48;;;;;;;2.70;1.20;;;;;;;;;;6138446;23;20444;-90
2021/05/13 11:50:26;;;;;;;2.70;1.40;;;;;;;;;;6173233;23;20839;-90
2021/05/13 11:53:07;;;;;;;1.20;1.10;;;;;;;;;;6178322;23;20500;-88
2021/05/13 11:55:40;;;;;;;2.67;1.13;;;;;;;;;;6176203;23;20434;-91
2021/05/13 11:58:08;;;;;;;1.83;0.90;;;;;;;;;;6133652;23;20853;-90
2021/05/13 12:00:39;;;;;;;1.20;1.10;;;;;;;;;;6106933;23;20438;-90
2021/05/13 12:03:12;;;;;;;1.80;1.20;;;;;;;;;;6155905;23;20788;-90
2021/05/13 12:05:50;;;;;;;2.87;1.60;;;;;;;;;;6177384;23;20500;-90
2021/05/13 12:08:18;;;;;;;2.90;1.23;;;;;;;;;;6149491;23;21028;-90
2021/05/13 12:10:47;;;;;;;2.13;1.10;;;;;;;;;;6122599;23;20447;-91
2021/05/13 12:13:15;;;;;;;2.43;1.10;;;;;;;;;;6110437;23;20792;-90
2021/05/13 12:15:43;;;;;;;1.23;1.13;;;;;;;;;;6134364;23;20436;-90
2021/05/13 12:18:11;;;;;;;2.23;1.90;;;;;;;;;;6124150;23;20444;-90
2021/05/13 12:20:42;;;;;;;1.83;1.37;;;;;;;;;;6091202;23;20525;-90
2021/05/13 12:23:10;;;;;;;1.87;1.03;;;;;;;;;;6120932;23;20450;-90
2021/05/13 12:25:38;;;;;;;3.10;1.30;;;;;;;;;;6120278;23;20686;-91
2021/05/13 12:28:07;;;;;;;2.20;1.40;;;;;;;;;;6135435;23;20419;-91
2021/05/13 12:30:35;;;;;;;1.80;1.40;;;;;;;;;;6125387;23;20525;-87
2021/05/13 12:33:20;;;;;;;1.60;1.33;;;;;;;;;;6130081;23;21135;-88
2021/05/13 12:35:49;;;;;;;1.40;1.30;;;;;;;;;;6175477;23;20433;-91
2021/05/13 12:38:18;;;;;;;2.60;1.60;;;;;;;;;;6166429;23;20444;-89
2021/05/13 12:40:46;;;;;;;1.33;1.23;;;;;;;;;;6147008;23;20795;-86
2021/05/13 12:43:15;;;;;;;2.60;1.80;;;;;;;;;;6123430;23;20450;-87
2021/05/13 12:45:45;;;;;;;2.87;1.33;;;33.90;43.90;;;;;;6103326;23;20456;-87
2021/05/13 12:48:21;;;;;;;1.30;1.10;;;33.30;46.70;;;;;;6158961;23;21092;-86
2021/05/13 12:50:58;;;;;;;3.03;1.33;;;;;;;;;;6133101;23;20433;-86
2021/05/13 12:53:27;;;;;;;1.40;1.30;;;;;;;;;;6099833;23;20865;-87
2021/05/13 12:55:55;;;;;;;1.83;1.30;;;;;;;;;;6099658;23;20439;-85
2021/05/13 12:58:25;;;;;;;2.83;1.20;;;32.90;45.60;;;;;;6127749;23;20469;-88
2021/05/13 13:00:54;;;;;;;2.43;1.40;;;;;;;;;;6135987;23;20471;-89
2021/05/13 13:03:32;;;;;;;1.70;1.20;;;;;;;;;;6154321;23;20872;-86
2021/05/13 13:06:06;;;;;;;1.93;1.13;;;;;;;;;;6171436;23;20467;-87
2021/05/13 13:08:38;;;;;;;1.73;1.30;;;;;;;;;;6158226;23;20956;-88
2021/05/13 13:11:06;;;;;;;1.93;1.20;;;;;;;;;;6139419;23;20441;-88
2021/05/13 13:13:45;;;;;;;2.50;1.50;;;32.10;42.60;;;;;;6143547;23;20503;-87
2021/05/13 13:16:18;;;;;;;2.37;1.10;;;30.70;45.70;;;;;;6114047;23;20953;-88
2021/05/13 13:18:46;;;;;;;4.40;1.30;;;;;;;;;;6164495;23;20471;-88